Time;durP1;ratioP1;P1;durP2;ratioP2;P2;SDS_P1;SDS_P2;PMS_P1;PMS_P2;Temp;Humidity;BMP_temperature;BMP_pressure;BME280_temperature;BME280_humidity;BME280_pressure;Samples;Min_cycle;Max_cycle;Signal;HPM_P1;HPM_P2
2023/12/16 00:00:26;;;;;;;19.80;11.15;;;4.10;99.90;;;;;;4899816;29;20857;-69
2023/12/16 00:02:57;;;;;;;19.38;12.07;;;4.10;99.90;;;;;;4915998;29;20044;-68
2023/12/16 00:05:29;;;;;;;17.80;11.18;;;4.10;99.90;;;;;;4912247;29;20425;-68
2023/12/16 00:08:01;;;;;;;18.92;10.98;;;4.10;99.90;;;;;;4914600;29;20508;-68
2023/12/16 00:10:33;;;;;;;18.90;11.27;;;4.10;99.90;;;;;;4915465;29;20050;-68
2023/12/16 00:13:05;;;;;;;16.60;10.75;;;4.10;99.90;;;;;;4915581;29;20532;-68
2023/12/16 00:15:37;;;;;;;20.33;10.95;;;4.10;99.90;;;;;;4915479;29;20046;-68
2023/12/16 00:18:09;;;;;;;18.75;11.90;;;4.00;99.90;;;;;;4915567;29;20510;-68
2023/12/16 00:20:36;;;;;;;18.35;11.27;;;4.00;99.90;;;;;;4915589;29;20054;-68
2023/12/16 00:23:08;;;;;;;19.40;11.55;;;4.00;99.90;;;;;;4912169;29;20063;-68
2023/12/16 00:25:40;;;;;;;18.77;10.88;;;4.00;99.90;;;;;;4928437;29;20539;-68
2023/12/16 00:28:12;;;;;;;21.35;11.38;;;4.00;99.90;;;;;;4915559;29;20051;-68
2023/12/16 00:30:44;;;;;;;18.58;10.20;;;4.00;99.90;;;;;;4915352;29;20136;-68
2023/12/16 00:33:11;;;;;;;17.25;11.00;;;4.00;99.90;;;;;;4912328;29;20416;-68
2023/12/16 00:35:43;;;;;;;17.38;11.10;;;4.00;99.90;;;;;;4915097;29;20580;-68
2023/12/16 00:38:15;;;;;;;17.83;11.48;;;4.00;99.90;;;;;;4907955;29;20597;-68
2023/12/16 00:40:47;;;;;;;18.10;10.82;;;4.00;99.90;;;;;;4921180;29;20071;-68
2023/12/16 00:43:19;;;;;;;16.92;10.13;;;3.90;99.90;;;;;;4915131;29;20421;-68
2023/12/16 00:45:51;;;;;;;16.02;10.63;;;4.00;99.90;;;;;;4914172;29;20080;-68
2023/12/16 00:48:18;;;;;;;16.42;9.98;;;3.90;99.90;;;;;;4914986;29;20048;-68
2023/12/16 00:50:45;;;;;;;16.10;10.23;;;3.90;99.90;;;;;;4915021;29;20052;-68
2023/12/16 00:53:12;;;;;;;16.88;10.73;;;3.90;99.90;;;;;;4914972;29;20044;-68
2023/12/16 00:55:44;;;;;;;15.57;9.77;;;3.90;99.90;;;;;;4900968;29;20045;-68
2023/12/16 00:58:15;;;;;;;12.48;9.35;;;3.90;99.90;;;;;;4902007;29;20103;-68
2023/12/16 01:00:47;;;;;;;15.02;9.95;;;3.90;99.90;;;;;;4913195;29;20052;-68
2023/12/16 01:03:19;;;;;;;15.95;10.05;;;3.90;99.90;;;;;;4904676;29;20429;-68
2023/12/16 01:05:51;;;;;;;14.07;9.18;;;3.90;99.90;;;;;;4905931;29;20112;-68
2023/12/16 01:08:22;;;;;;;15.88;9.20;;;3.90;99.90;;;;;;4907313;29;20043;-69
2023/12/16 01:10:49;;;;;;;17.90;10.65;;;3.90;99.90;;;;;;4914967;29;20051;-69
2023/12/16 01:13:21;;;;;;;15.07;9.48;;;3.90;99.90;;;;;;4910926;29;20046;-68
2023/12/16 01:15:53;;;;;;;15.82;9.63;;;3.80;99.90;;;;;;4914760;29;20513;-68
2023/12/16 01:18:25;;;;;;;16.33;9.68;;;3.80;99.90;;;;;;4914972;29;20402;-68
2023/12/16 01:20:57;;;;;;;17.33;10.15;;;3.80;99.90;;;;;;4913678;29;20055;-68
2023/12/16 01:23:24;;;;;;;14.55;8.38;;;3.80;99.90;;;;;;4910678;29;20669;-68
2023/12/16 01:25:50;;;;;;;13.35;9.50;;;3.70;99.90;;;;;;4914862;29;20052;-68
2023/12/16 01:28:17;;;;;;;15.88;8.77;;;3.70;99.90;;;;;;4903606;29;20582;-68
2023/12/16 01:30:49;;;;;;;13.57;8.13;;;3.70;99.90;;;;;;4890698;29;20063;-68
2023/12/16 01:33:21;;;;;;;13.38;8.50;;;3.70;99.90;;;;;;4914481;29;20386;-68
2023/12/16 01:35:53;;;;;;;13.80;8.80;;;3.80;99.90;;;;;;4898126;29;20052;-68
2023/12/16 01:38:25;;;;;;;17.40;9.38;;;3.80;99.90;;;;;;4914585;29;20066;-68
2023/12/16 01:40:56;;;;;;;17.52;9.60;;;3.80;99.90;;;;;;4911312;29;20409;-68
2023/12/16 01:43:28;;;;;;;14.63;9.43;;;3.80;99.90;;;;;;4899285;29;20502;-68
2023/12/16 01:46:03;;;;;;;15.02;9.52;;;3.80;99.90;;;;;;4884465;29;20044;-68
2023/12/16 01:48:35;;;;;;;15.02;9.35;;;3.80;99.90;;;;;;4918298;29;20036;-69
2023/12/16 01:51:07;;;;;;;16.85;10.75;;;3.80;99.90;;;;;;4917074;29;20048;-68
2023/12/16 01:53:40;;;;;;;15.65;9.80;;;3.80;99.90;;;;;;4916603;29;20099;-68
2023/12/16 01:56:12;;;;;;;18.20;10.43;;;3.80;99.90;;;;;;4918211;29;20120;-68
2023/12/16 01:58:44;;;;;;;17.17;10.43;;;3.80;99.90;;;;;;4909654;29;20288;-68
2023/12/16 02:01:12;;;;;;;18.75;10.80;;;3.80;99.90;;;;;;4905894;29;20044;-68
2023/12/16 02:03:45;;;;;;;16.38;10.32;;;3.80;99.90;;;;;;4915802;29;20402;-68
2023/12/16 02:06:18;;;;;;;16.70;10.20;;;3.80;99.90;;;;;;4917543;29;20417;-69
2023/12/16 02:08:45;;;;;;;15.82;9.43;;;3.80;99.90;;;;;;4917379;29;20048;-68
2023/12/16 02:11:17;;;;;;;15.40;10.18;;;3.90;99.90;;;;;;4917627;29;20048;-68
2023/12/16 02:13:44;;;;;;;16.23;10.18;;;3.90;99.90;;;;;;4930697;29;20119;-68
2023/12/16 02:16:16;;;;;;;16.27;9.60;;;3.90;99.90;;;;;;4908930;29;20040;-68
2023/12/16 02:18:49;;;;;;;15.45;10.55;;;3.90;99.90;;;;;;4917452;29;20130;-68
2023/12/16 02:21:21;;;;;;;14.77;9.98;;;3.90;99.90;;;;;;4915158;29;20139;-68
2023/12/16 02:23:48;;;;;;;16.70;10.95;;;4.00;99.90;;;;;;4917217;29;20044;-68
2023/12/16 02:26:20;;;;;;;14.40;9.70;;;4.00;99.90;;;;;;4908581;29;20506;-68
2023/12/16 02:28:51;;;;;;;17.63;10.32;;;3.90;99.90;;;;;;4915911;29;20048;-68
2023/12/16 02:31:18;;;;;;;15.55;10.10;;;3.90;99.90;;;;;;4917234;29;20048;-68
2023/12/16 02:33:50;;;;;;;17.27;9.80;;;3.90;99.90;;;;;;4900672;29;20536;-68
2023/12/16 02:36:24;;;;;;;16.60;9.75;;;3.90;99.90;;;;;;4912893;29;20059;-68
2023/12/16 02:38:51;;;;;;;14.32;9.70;;;3.90;99.90;;;;;;4915773;29;20040;-68
2023/12/16 02:41:23;;;;;;;16.67;9.38;;;3.90;99.90;;;;;;4902947;29;20513;-68
2023/12/16 02:43:50;;;;;;;19.55;9.70;;;3.90;99.90;;;;;;4916655;29;20048;-68
2023/12/16 02:46:22;;;;;;;16.70;10.35;;;3.90;99.90;;;;;;4914972;29;20056;-68
2023/12/16 02:48:49;;;;;;;17.60;10.02;;;3.90;99.90;;;;;;4892571;29;20047;-68
2023/12/16 02:51:20;;;;;;;18.67;11.57;;;3.90;99.90;;;;;;4916752;29;20076;-68
2023/12/16 02:53:53;;;;;;;17.92;11.70;;;3.90;99.90;;;;;;4916506;29;20051;-68
2023/12/16 02:56:24;;;;;;;15.00;10.10;;;3.90;99.90;;;;;;4915694;29;20044;-68
2023/12/16 02:58:51;;;;;;;18.80;10.63;;;3.90;99.90;;;;;;4916687;29;20087;-68
2023/12/16 03:01:23;;;;;;;13.77;9.38;;;3.90;99.90;;;;;;4902462;29;20048;-68
2023/12/16 03:03:50;;;;;;;16.90;10.10;;;3.90;99.90;;;;;;4901119;29;20080;-68
2023/12/16 03:06:17;;;;;;;39.65;11.80;;;4.00;99.90;;;;;;4916273;29;20048;-68
2023/12/16 03:08:49;;;;;;;14.88;10.00;;;4.00;99.90;;;;;;4902832;29;20051;-69
2023/12/16 03:11:15;;;;;;;16.75;10.73;;;4.00;99.90;;;;;;4916511;29;20148;-68
2023/12/16 03:13:47;;;;;;;15.48;9.93;;;4.00;99.90;;;;;;4914985;29;20147;-69
2023/12/16 03:16:20;;;;;;;17.60;10.50;;;4.00;99.90;;;;;;4915305;29;20052;-69
2023/12/16 03:18:47;;;;;;;16.00;8.82;;;4.00;99.90;;;;;;4916316;29;20044;-70
2023/12/16 03:21:13;;;;;;;14.57;9.00;;;4.00;99.90;;;;;;4916291;29;20127;-69
2023/12/16 03:23:45;;;;;;;13.73;8.73;;;4.00;99.90;;;;;;4916101;29;20048;-69
2023/12/16 03:26:17;;;;;;;13.60;9.05;;;4.00;99.90;;;;;;4915615;29;20051;-69
2023/12/16 03:28:49;;;;;;;12.55;8.32;;;4.00;99.90;;;;;;4916272;29;20119;-69
2023/12/16 03:31:21;;;;;;;12.10;8.15;;;4.00;99.90;;;;;;4916203;29;20040;-69
2023/12/16 03:33:53;;;;;;;13.80;8.65;;;4.10;99.90;;;;;;4901827;29;20048;-68
2023/12/16 03:36:25;;;;;;;12.75;8.32;;;4.10;99.90;;;;;;4891439;29;20051;-68
2023/12/16 03:38:57;;;;;;;12.88;8.25;;;4.10;99.90;;;;;;4913432;29;20059;-68
2023/12/16 03:41:29;;;;;;;13.18;8.00;;;4.10;99.90;;;;;;4916117;29;20043;-69
2023/12/16 03:44:01;;;;;;;12.65;8.02;;;4.10;99.90;;;;;;4928803;29;20528;-68
2023/12/16 03:46:33;;;;;;;13.98;8.55;;;4.10;99.90;;;;;;4914870;29;20044;-68
2023/12/16 03:49:04;;;;;;;14.75;8.82;;;4.10;99.90;;;;;;4914090;29;20052;-68
2023/12/16 03:51:37;;;;;;;14.35;8.48;;;4.00;99.90;;;;;;4915823;29;20178;-68
2023/12/16 03:54:04;;;;;;;12.70;7.50;;;4.00;99.90;;;;;;4911969;29;20047;-68
2023/12/16 03:56:31;;;;;;;16.23;9.65;;;4.00;99.90;;;;;;4900399;29;20383;-69
2023/12/16 03:59:04;;;;;;;15.65;8.57;;;4.00;99.90;;;;;;4915516;29;20044;-68
2023/12/16 04:01:36;;;;;;;15.30;8.55;;;4.00;99.90;;;;;;4928236;29;20043;-68
2023/12/16 04:04:08;;;;;;;14.75;9.10;;;3.90;99.90;;;;;;4917387;29;20548;-68
2023/12/16 04:06:39;;;;;;;15.05;8.50;;;3.90;99.90;;;;;;4917076;29;20049;-66
2023/12/16 04:09:11;;;;;;;13.07;8.60;;;3.80;99.90;;;;;;4915234;29;20119;-68
2023/12/16 04:11:48;;;;;;;15.77;9.73;;;3.80;99.90;;;;;;4906131;29;20056;-68
2023/12/16 04:14:20;;;;;;;14.23;9.15;;;3.70;99.90;;;;;;4905965;29;20048;-67
2023/12/16 04:16:47;;;;;;;16.63;9.77;;;3.70;99.90;;;;;;4914498;29;20728;-68
2023/12/16 04:19:14;;;;;;;14.75;8.23;;;3.60;99.90;;;;;;4926700;29;20132;-66
2023/12/16 04:21:46;;;;;;;15.75;9.13;;;3.70;99.90;;;;;;4909914;29;20040;-68
2023/12/16 04:24:18;;;;;;;16.08;10.20;;;4.00;99.90;;;;;;4911354;29;20123;-68
2023/12/16 04:26:45;;;;;;;13.88;9.00;;;4.20;99.90;;;;;;4915286;29;20402;-67
2023/12/16 04:29:12;;;;;;;17.77;10.38;;;4.30;99.90;;;;;;4911114;29;20052;-68
2023/12/16 04:31:45;;;;;;;13.07;9.15;;;4.40;99.90;;;;;;4911828;29;20050;-68
2023/12/16 04:34:17;;;;;;;13.15;9.25;;;4.30;99.90;;;;;;4911324;29;20062;-68
2023/12/16 04:36:49;;;;;;;15.48;9.23;;;4.10;99.90;;;;;;4905271;29;20651;-68
2023/12/16 04:39:21;;;;;;;12.88;9.32;;;4.00;99.90;;;;;;4910784;29;20045;-68
2023/12/16 04:41:53;;;;;;;13.48;8.57;;;3.90;99.90;;;;;;4909452;29;20044;-68
2023/12/16 04:44:24;;;;;;;15.25;9.27;;;3.80;99.90;;;;;;4894342;29;20048;-68
2023/12/16 04:46:56;;;;;;;14.60;8.93;;;3.70;99.90;;;;;;4914902;29;20186;-68
2023/12/16 04:49:28;;;;;;;16.83;9.95;;;3.70;99.90;;;;;;4915015;29;20044;-68
2023/12/16 04:51:55;;;;;;;17.98;10.77;;;3.60;99.90;;;;;;4915195;29;20386;-68
2023/12/16 04:54:22;;;;;;;15.38;9.75;;;3.60;99.90;;;;;;4926876;29;20126;-68
2023/12/16 04:56:54;;;;;;;18.17;10.63;;;3.60;99.90;;;;;;4915064;29;20413;-68
2023/12/16 04:59:26;;;;;;;18.38;11.65;;;3.50;99.90;;;;;;4904641;29;20048;-68
2023/12/16 05:01:58;;;;;;;17.05;10.48;;;3.50;99.90;;;;;;4914986;29;20100;-68
2023/12/16 05:04:30;;;;;;;17.40;11.25;;;3.40;99.90;;;;;;4905586;29;20417;-68
2023/12/16 05:06:57;;;;;;;15.98;10.00;;;3.40;99.90;;;;;;4915031;29;20044;-68
2023/12/16 05:09:24;;;;;;;16.88;10.68;;;3.40;99.90;;;;;;4913386;29;20052;-68
2023/12/16 05:11:51;;;;;;;18.13;11.23;;;3.50;99.90;;;;;;4914913;29;20078;-68
2023/12/16 05:14:23;;;;;;;20.55;12.13;;;3.50;99.90;;;;;;4914514;29;20043;-68
2023/12/16 05:16:55;;;;;;;18.08;11.65;;;3.50;99.90;;;;;;4898669;29;20442;-68
2023/12/16 05:19:27;;;;;;;19.98;12.35;;;3.50;99.90;;;;;;4896903;29;20075;-68
2023/12/16 05:21:58;;;;;;;18.23;11.15;;;3.50;99.90;;;;;;4911239;29;20044;-68
2023/12/16 05:24:30;;;;;;;16.35;10.70;;;3.50;99.90;;;;;;4891445;29;20513;-68
2023/12/16 05:26:57;;;;;;;16.38;10.50;;;3.50;99.90;;;;;;4907377;29;20079;-68
2023/12/16 05:29:29;;;;;;;19.50;11.27;;;3.50;99.90;;;;;;4898502;29;20052;-68
2023/12/16 05:32:01;;;;;;;18.63;11.32;;;3.50;99.90;;;;;;4909210;29;20407;-68
2023/12/16 05:34:36;;;;;;;19.33;12.05;;;3.50;99.90;;;;;;4914536;29;20135;-68
2023/12/16 05:37:03;;;;;;;18.60;11.35;;;3.40;99.90;;;;;;4913855;29;20059;-68
2023/12/16 05:39:35;;;;;;;19.17;11.45;;;3.40;99.90;;;;;;4914700;29;20122;-68
2023/12/16 05:42:07;;;;;;;21.65;12.93;;;3.40;99.90;;;;;;4913421;29;20476;-68
2023/12/16 05:44:39;;;;;;;22.40;11.15;;;3.40;99.90;;;;;;4914409;29;20052;-68
2023/12/16 05:47:11;;;;;;;17.88;11.00;;;3.30;99.90;;;;;;4914552;29;20545;-68
2023/12/16 05:49:43;;;;;;;18.20;11.60;;;3.30;99.90;;;;;;4911942;29;20044;-68
2023/12/16 05:52:15;;;;;;;19.10;11.80;;;3.30;99.90;;;;;;4914408;29;20036;-68
2023/12/16 05:54:47;;;;;;;19.35;11.63;;;3.30;99.90;;;;;;4914240;29;20040;-68
2023/12/16 05:57:19;;;;;;;21.17;12.13;;;3.30;99.90;;;;;;4905702;29;20051;-68
2023/12/16 05:59:51;;;;;;;22.58;12.20;;;3.30;99.90;;;;;;4909532;29;20517;-68
2023/12/16 06:02:23;;;;;;;19.70;11.50;;;3.20;99.90;;;;;;4909081;29;20096;-68
2023/12/16 06:04:55;;;;;;;23.33;13.05;;;3.20;99.90;;;;;;4912043;29;20036;-68
2023/12/16 06:07:27;;;;;;;21.27;12.18;;;3.20;99.90;;;;;;4899495;29;20079;-68
2023/12/16 06:09:59;;;;;;;20.40;12.73;;;3.20;99.90;;;;;;4911209;29;20075;-68
2023/12/16 06:12:31;;;;;;;18.35;11.70;;;3.20;99.90;;;;;;4926394;29;20052;-68
2023/12/16 06:15:03;;;;;;;20.77;11.85;;;3.20;99.90;;;;;;4913474;29;20044;-68
2023/12/16 06:17:36;;;;;;;23.92;13.27;;;3.20;99.90;;;;;;4909512;29;20142;-68
2023/12/16 06:20:08;;;;;;;22.63;13.35;;;3.30;99.90;;;;;;4918482;29;20438;-68
2023/12/16 06:22:40;;;;;;;18.17;11.23;;;3.20;99.90;;;;;;4897975;29;20936;-68
2023/12/16 06:25:12;;;;;;;21.02;12.48;;;3.20;99.90;;;;;;4905870;29;20056;-68
2023/12/16 06:27:44;;;;;;;22.77;13.35;;;3.20;99.90;;;;;;4908684;29;20048;-68
2023/12/16 06:30:12;;;;;;;19.85;12.40;;;3.20;99.90;;;;;;4916095;29;20044;-68
2023/12/16 06:32:39;;;;;;;20.83;12.48;;;3.10;99.90;;;;;;4917545;29;20126;-69
2023/12/16 06:35:11;;;;;;;21.83;13.15;;;3.10;99.90;;;;;;4917148;29;20051;-68
2023/12/16 06:37:43;;;;;;;21.88;12.75;;;3.10;99.90;;;;;;4914611;29;20119;-68
2023/12/16 06:40:10;;;;;;;22.02;12.85;;;3.00;99.90;;;;;;4917484;29;20154;-68
2023/12/16 06:42:42;;;;;;;22.55;12.63;;;3.00;99.90;;;;;;4903273;29;20044;-68
2023/12/16 06:45:09;;;;;;;24.38;13.15;;;3.10;99.90;;;;;;4917140;29;20072;-68
2023/12/16 06:47:37;;;;;;;22.67;13.88;;;3.10;99.90;;;;;;4925130;29;20048;-68
2023/12/16 06:50:09;;;;;;;22.73;13.35;;;3.10;99.90;;;;;;4921350;29;20531;-68
2023/12/16 06:52:41;;;;;;;25.15;14.25;;;3.10;99.90;;;;;;4917218;29;20048;-68
2023/12/16 06:55:13;;;;;;;31.08;18.70;;;3.10;99.90;;;;;;4913363;29;20417;-68
2023/12/16 06:57:45;;;;;;;22.45;13.70;;;3.10;99.90;;;;;;4915822;29;20511;-68
2023/12/16 07:00:17;;;;;;;19.98;12.95;;;3.10;99.90;;;;;;4915945;29;20045;-68
2023/12/16 07:02:49;;;;;;;25.42;13.35;;;3.10;99.90;;;;;;4900855;29;20457;-68
2023/12/16 07:05:21;;;;;;;24.88;13.57;;;3.10;99.90;;;;;;4903142;29;20048;-68
2023/12/16 07:07:52;;;;;;;26.05;15.00;;;3.10;99.90;;;;;;4904868;29;20441;-68
2023/12/16 07:10:24;;;;;;;28.60;16.27;;;3.00;99.90;;;;;;4916931;29;20072;-68
2023/12/16 07:12:56;;;;;;;24.00;14.85;;;3.10;99.90;;;;;;4916869;29;20406;-68
2023/12/16 07:15:28;;;;;;;28.45;14.88;;;3.00;99.90;;;;;;4905626;29;20048;-68
2023/12/16 07:17:55;;;;;;;33.67;21.27;;;3.00;99.90;;;;;;4916786;29;20489;-68
2023/12/16 07:20:27;;;;;;;30.30;19.20;;;3.10;99.90;;;;;;4908512;29;20068;-68
2023/12/16 07:22:58;;;;;;;22.45;14.00;;;3.00;99.90;;;;;;4914393;29;20433;-68
2023/12/16 07:25:25;;;;;;;21.55;12.93;;;3.00;99.90;;;;;;4901968;29;20096;-68
2023/12/16 07:27:57;;;;;;;23.88;11.93;;;3.00;99.90;;;;;;4916528;29;20071;-68
2023/12/16 07:30:28;;;;;;;19.20;12.27;;;2.90;99.90;;;;;;4902565;29;20059;-68
2023/12/16 07:33:00;;;;;;;19.63;12.80;;;2.90;99.90;;;;;;4915131;29;20563;-68
2023/12/16 07:35:34;;;;;;;20.95;12.25;;;2.80;99.90;;;;;;4911778;29;20044;-68
2023/12/16 07:38:07;;;;;;;22.45;13.15;;;2.80;99.90;;;;;;4916357;29;20044;-68
2023/12/16 07:40:35;;;;;;;18.98;11.50;;;2.80;99.90;;;;;;4916055;29;20564;-68
2023/12/16 07:43:07;;;;;;;24.02;14.05;;;2.80;99.90;;;;;;4915293;29;20040;-68
2023/12/16 07:45:39;;;;;;;25.60;15.82;;;2.90;99.90;;;;;;4908521;29;20052;-68
2023/12/16 07:48:11;;;;;;;24.63;14.15;;;2.90;99.90;;;;;;4916183;29;20044;-68
2023/12/16 07:50:43;;;;;;;24.48;13.82;;;2.90;99.90;;;;;;4927773;29;20044;-68
2023/12/16 07:53:15;;;;;;;24.17;13.82;;;3.00;99.90;;;;;;4930072;29;20075;-68
2023/12/16 07:55:48;;;;;;;23.67;15.05;;;3.00;99.90;;;;;;4929050;29;20040;-68
2023/12/16 07:58:19;;;;;;;20.42;12.98;;;3.00;99.90;;;;;;4927709;29;20052;-68
2023/12/16 08:00:51;;;;;;;26.05;14.18;;;3.10;99.90;;;;;;4916068;29;20532;-68
2023/12/16 08:03:26;;;;;;;21.95;12.90;;;3.10;99.90;;;;;;4905340;29;20076;-68
2023/12/16 08:05:58;;;;;;;23.88;13.02;;;3.20;99.90;;;;;;4898020;29;20040;-68
2023/12/16 08:08:30;;;;;;;23.63;13.75;;;3.20;99.90;;;;;;4899430;29;20644;-68
2023/12/16 08:11:03;;;;;;;18.63;12.23;;;3.30;99.90;;;;;;4914231;29;20048;-68
2023/12/16 08:13:35;;;;;;;20.80;12.90;;;3.40;99.90;;;;;;4915721;29;20052;-68
2023/12/16 08:16:10;;;;;;;22.63;12.63;;;3.40;99.90;;;;;;4914187;29;20048;-68
2023/12/16 08:18:42;;;;;;;30.73;17.40;;;3.40;99.90;;;;;;4915630;29;20048;-68
2023/12/16 08:21:20;;;;;;;30.08;15.52;;;3.60;99.90;;;;;;4915689;29;20071;-68
2023/12/16 08:23:52;;;;;;;32.63;19.65;;;3.60;99.90;;;;;;4915356;29;20054;-68
2023/12/16 08:26:27;;;;;;;46.50;26.10;;;3.70;99.90;;;;;;4913514;29;20048;-68
2023/12/16 08:28:58;;;;;;;45.05;22.02;;;3.70;99.90;;;;;;4904556;29;20533;-68
2023/12/16 08:31:31;;;;;;;36.90;21.20;;;3.70;99.90;;;;;;4919171;29;20075;-68
2023/12/16 08:33:57;;;;;;;35.17;21.30;;;3.80;99.90;;;;;;4915027;29;20052;-68
2023/12/16 08:36:29;;;;;;;32.15;18.73;;;3.80;99.90;;;;;;4913950;29;20044;-68
2023/12/16 08:39:01;;;;;;;29.92;17.45;;;3.80;99.90;;;;;;4915220;29;20044;-68
2023/12/16 08:41:33;;;;;;;30.05;17.25;;;3.80;99.90;;;;;;4916005;29;20052;-68
2023/12/16 08:44:05;;;;;;;25.08;16.33;;;3.90;99.90;;;;;;4900652;29;20044;-68
2023/12/16 08:46:41;;;;;;;22.98;14.95;;;3.90;99.90;;;;;;4911843;29;20055;-68
2023/12/16 08:49:08;;;;;;;25.60;14.30;;;3.90;99.90;;;;;;4915131;29;20160;-68
2023/12/16 08:51:39;;;;;;;26.58;14.38;;;3.90;99.90;;;;;;4902407;29;20037;-68
2023/12/16 08:54:11;;;;;;;22.98;13.13;;;3.90;99.90;;;;;;4902526;29;20047;-68
2023/12/16 08:56:38;;;;;;;22.05;13.88;;;3.90;99.90;;;;;;4915059;29;20071;-68
2023/12/16 08:59:10;;;;;;;20.40;12.80;;;3.90;99.90;;;;;;4915008;29;20063;-68
2023/12/16 09:01:43;;;;;;;23.27;12.68;;;3.90;99.90;;;;;;4913700;29;20426;-68
2023/12/16 09:04:15;;;;;;;20.45;12.45;;;3.90;99.90;;;;;;4914807;29;20047;-68
2023/12/16 09:06:46;;;;;;;19.88;12.45;;;3.90;99.90;;;;;;4913713;29;20417;-68
2023/12/16 09:09:13;;;;;;;19.90;11.85;;;4.00;99.90;;;;;;4914663;29;20048;-68
2023/12/16 09:11:45;;;;;;;18.27;12.10;;;4.00;99.90;;;;;;4912907;29;20122;-68
2023/12/16 09:14:17;;;;;;;22.17;12.60;;;4.10;99.90;;;;;;4914712;29;20075;-68
2023/12/16 09:16:50;;;;;;;20.08;13.02;;;4.20;99.90;;;;;;4914712;29;20064;-68
2023/12/16 09:19:22;;;;;;;21.27;12.40;;;4.20;99.90;;;;;;4905337;29;20039;-68
2023/12/16 09:21:54;;;;;;;19.90;12.57;;;4.20;99.90;;;;;;4911835;29;20111;-68
2023/12/16 09:24:26;;;;;;;19.10;11.70;;;4.30;99.90;;;;;;4913229;29;20076;-68
2023/12/16 09:26:58;;;;;;;20.65;12.18;;;4.30;99.90;;;;;;4906828;29;20051;-68
2023/12/16 09:29:30;;;;;;;21.05;13.13;;;4.30;99.90;;;;;;4914542;29;20672;-68
2023/12/16 09:32:02;;;;;;;20.92;12.88;;;4.40;99.90;;;;;;4914732;29;20052;-68
2023/12/16 09:34:37;;;;;;;18.50;11.80;;;4.40;99.90;;;;;;4913285;29;20044;-68
2023/12/16 09:37:04;;;;;;;17.00;11.35;;;4.40;99.90;;;;;;4927688;29;20151;-68
2023/12/16 09:39:36;;;;;;;19.13;11.18;;;4.40;99.90;;;;;;4914385;29;20572;-68
2023/12/16 09:42:03;;;;;;;19.35;11.80;;;4.40;99.90;;;;;;4914551;29;20040;-68
2023/12/16 09:44:37;;;;;;;19.90;11.63;;;4.40;99.90;;;;;;4913392;29;20044;-68
2023/12/16 09:47:11;;;;;;;19.85;11.68;;;4.50;99.90;;;;;;4911174;29;20052;-68
2023/12/16 09:49:40;;;;;;;17.17;11.77;;;4.50;99.90;;;;;;4904610;29;20099;-68
2023/12/16 09:52:13;;;;;;;17.50;10.50;;;4.60;99.90;;;;;;4905508;29;20052;-68
2023/12/16 09:54:45;;;;;;;17.30;10.85;;;4.60;99.90;;;;;;4914220;29;20143;-68
2023/12/16 09:57:18;;;;;;;17.20;11.52;;;4.50;99.90;;;;;;4907478;29;20036;-68
2023/12/16 09:59:52;;;;;;;18.38;11.00;;;4.50;99.90;;;;;;4910204;29;20079;-68
2023/12/16 10:02:26;;;;;;;18.83;10.88;;;4.50;99.90;;;;;;4914709;29;20051;-68
2023/12/16 10:04:58;;;;;;;17.05;10.32;;;4.60;99.90;;;;;;4916184;29;20052;-68
2023/12/16 10:07:30;;;;;;;14.80;10.43;;;4.60;99.90;;;;;;4918272;29;20107;-68
2023/12/16 10:09:56;;;;;;;16.65;10.63;;;4.70;99.90;;;;;;4911049;29;20056;-68
2023/12/16 10:12:34;;;;;;;14.45;9.25;;;4.70;99.90;;;;;;4917889;29;20059;-68
2023/12/16 10:15:07;;;;;;;16.27;8.73;;;4.80;99.90;;;;;;4914703;29;20095;-68
2023/12/16 10:17:39;;;;;;;14.63;9.73;;;4.80;99.90;;;;;;4917902;29;20506;-68
2023/12/16 10:20:11;;;;;;;14.90;9.70;;;4.80;99.90;;;;;;4908273;29;20055;-68
2023/12/16 10:22:38;;;;;;;14.82;9.15;;;4.80;99.90;;;;;;4917833;29;20394;-68
2023/12/16 10:25:11;;;;;;;15.13;9.38;;;4.80;99.90;;;;;;4917426;29;20078;-68
2023/12/16 10:27:43;;;;;;;15.35;10.73;;;4.70;99.90;;;;;;4915215;29;20100;-68
2023/12/16 10:30:11;;;;;;;17.05;10.50;;;4.70;99.90;;;;;;4917488;29;20498;-68
2023/12/16 10:32:43;;;;;;;13.10;9.10;;;4.70;99.90;;;;;;4917573;29;20055;-68
2023/12/16 10:35:16;;;;;;;14.60;9.77;;;4.70;99.90;;;;;;4914458;29;20300;-68
2023/12/16 10:37:49;;;;;;;14.90;10.40;;;4.70;99.90;;;;;;4917579;29;20095;-68
2023/12/16 10:40:22;;;;;;;14.57;9.38;;;4.70;99.90;;;;;;4912823;29;20075;-68
2023/12/16 10:42:54;;;;;;;20.20;9.02;;;4.70;99.90;;;;;;4916368;29;20043;-68
2023/12/16 10:45:21;;;;;;;12.75;8.35;;;4.70;99.90;;;;;;4908268;29;20044;-68
2023/12/16 10:47:56;;;;;;;12.43;7.40;;;4.80;99.90;;;;;;4901248;29;20040;-68
2023/12/16 10:50:29;;;;;;;9.68;6.78;;;4.80;99.90;;;;;;4917205;29;20131;-68
2023/12/16 10:53:04;;;;;;;9.32;6.18;;;4.80;99.90;;;;;;4927731;29;20056;-68
2023/12/16 10:55:54;;;;;;;7.78;4.45;;;4.90;99.90;;;;;;4917092;29;20046;-68
2023/12/16 10:58:28;;;;;;;6.63;4.93;;;5.00;99.90;;;;;;4917048;29;20044;-68
2023/12/16 11:01:08;;;;;;;7.78;5.82;;;5.00;99.90;;;;;;4916800;29;20543;-68
2023/12/16 11:03:58;;;;;;;9.07;6.40;;;5.10;99.90;;;;;;4917176;29;20036;-68
2023/12/16 11:06:39;;;;;;;8.35;6.10;;;5.20;99.90;;;;;;4916967;29;20501;-68
2023/12/16 11:09:12;;;;;;;9.65;6.45;;;5.30;99.90;;;;;;4916942;29;20429;-67
2023/12/16 11:11:46;;;;;;;9.27;6.78;;;5.30;99.90;;;;;;4915778;29;20134;-67
2023/12/16 11:14:18;;;;;;;9.57;6.97;;;5.40;99.90;;;;;;4923601;29;20055;-67
2023/12/16 11:17:33;;;;;;;10.35;7.38;;;5.50;99.90;;;;;;4915645;29;20047;-67
2023/12/16 11:20:08;;;;;;;9.85;7.10;;;5.60;99.90;;;;;;4910315;29;20054;-68
2023/12/16 11:22:51;;;;;;;9.82;7.28;;;5.60;99.90;;;;;;4915181;29;20433;-68
2023/12/16 11:25:19;;;;;;;10.80;8.02;;;5.70;99.90;;;;;;4916552;29;20044;-68
2023/12/16 11:27:51;;;;;;;9.13;6.65;;;5.60;99.90;;;;;;4913796;29;20044;-68
2023/12/16 11:30:23;;;;;;;9.07;6.50;;;5.60;99.90;;;;;;4912180;29;20055;-68
2023/12/16 11:32:57;;;;;;;11.80;7.60;;;5.60;99.90;;;;;;4915927;29;20191;-68
2023/12/16 11:35:35;;;;;;;8.32;6.13;;;5.50;99.90;;;;;;4916001;29;20062;-68
2023/12/16 11:38:02;;;;;;;8.48;6.32;;;5.50;99.90;;;;;;4923874;29;20062;-68
2023/12/16 11:40:51;;;;;;;7.72;5.30;;;5.40;99.90;;;;;;4913951;29;20044;-68
2023/12/16 11:43:51;;;;;;;8.13;5.60;;;5.50;99.90;;;;;;4914190;29;20050;-67
2023/12/16 11:46:44;;;;;;;9.23;6.53;;;5.60;99.90;;;;;;4930827;29;20076;-67
2023/12/16 11:49:16;;;;;;;12.40;6.38;;;5.70;99.90;;;;;;4916313;29;20087;-68
2023/12/16 11:51:43;;;;;;;9.52;6.22;;;5.80;99.90;;;;;;4929918;29;20048;-68
2023/12/16 11:54:14;;;;;;;8.55;6.00;;;5.80;99.90;;;;;;4910555;29;20405;-68
2023/12/16 11:56:41;;;;;;;7.10;5.38;;;5.70;99.90;;;;;;4916094;29;20071;-68
2023/12/16 11:59:13;;;;;;;8.90;6.15;;;5.60;99.90;;;;;;4915179;29;20050;-68
2023/12/16 12:01:45;;;;;;;9.50;6.97;;;5.50;99.90;;;;;;4913714;29;20066;-68
2023/12/16 12:04:17;;;;;;;7.78;5.57;;;5.50;99.90;;;;;;4915919;29;20523;-67
2023/12/16 12:06:49;;;;;;;7.28;5.30;;;5.40;99.90;;;;;;4915917;29;20055;-68
2023/12/16 12:09:21;;;;;;;7.75;4.65;;;5.40;99.90;;;;;;4915685;29;20044;-68
2023/12/16 12:11:53;;;;;;;7.53;5.20;;;5.40;99.90;;;;;;4915921;29;20048;-68
2023/12/16 12:14:25;;;;;;;9.45;5.90;;;5.50;99.90;;;;;;4915276;29;20138;-68
2023/12/16 12:16:58;;;;;;;7.68;5.68;;;5.60;99.90;;;;;;4915727;29;20040;-68
2023/12/16 12:19:31;;;;;;;9.05;5.68;;;5.80;99.90;;;;;;4915577;29;20055;-68
2023/12/16 12:22:03;;;;;;;8.95;6.05;;;6.00;99.90;;;;;;4899306;29;20055;-68
2023/12/16 12:24:29;;;;;;;8.20;6.25;;;6.20;99.90;;;;;;4915426;29;20150;-68
2023/12/16 12:27:01;;;;;;;8.88;5.95;;;6.40;99.90;;;;;;4904538;29;20045;-68
2023/12/16 12:29:56;;;;;;;7.50;5.82;;;6.50;99.90;;;;;;4912551;29;20059;-68
2023/12/16 12:32:24;;;;;;;9.57;6.53;;;6.50;99.90;;;;;;4915354;29;20048;-67
2023/12/16 12:35:07;;;;;;;8.35;5.50;;;6.50;99.90;;;;;;4898741;29;20056;-68
2023/12/16 12:37:38;;;;;;;7.80;5.82;;;6.50;99.90;;;;;;4912874;29;20382;-68
2023/12/16 12:40:13;;;;;;;14.60;8.70;;;6.50;99.90;;;;;;4904011;29;20068;-68
2023/12/16 12:42:55;;;;;;;10.82;6.18;;;6.50;99.90;;;;;;4915361;29;20043;-68
2023/12/16 12:45:32;;;;;;;13.02;8.07;;;6.50;99.90;;;;;;4903576;29;20048;-68
2023/12/16 12:48:16;;;;;;;12.75;8.57;;;6.50;99.90;;;;;;4915181;29;20044;-68
2023/12/16 12:51:03;;;;;;;13.63;7.95;;;6.40;99.90;;;;;;4915135;29;20052;-68
2023/12/16 12:53:38;;;;;;;18.85;10.82;;;6.40;99.90;;;;;;4912361;29;20060;-68
2023/12/16 12:56:06;;;;;;;25.10;13.55;;;6.50;99.90;;;;;;4914925;29;20131;-68
2023/12/16 12:58:38;;;;;;;6.82;5.35;;;6.50;99.90;;;;;;4907373;29;20044;-68
2023/12/16 13:01:10;;;;;;;6.88;4.93;;;6.60;99.90;;;;;;4913129;29;20043;-68
2023/12/16 13:03:42;;;;;;;5.85;4.22;;;6.70;99.90;;;;;;4902280;29;20036;-67
2023/12/16 13:06:14;;;;;;;7.70;4.40;;;6.80;99.90;;;;;;4912292;29;20513;-68